Time;durP1;ratioP1;P1;durP2;ratioP2;P2;SDS_P1;SDS_P2;PMS_P1;PMS_P2;Temp;Humidity;BMP_temperature;BMP_pressure;BME280_temperature;BME280_humidity;BME280_pressure;Samples;Min_cycle;Max_cycle;Signal;HPM_P1;HPM_P2
2023/12/26 00:01:10;;;;;;;4.20;2.28;;;;;;;-146.82;100.00;71671.09;5041085;28;20455;-82
2023/12/26 00:03:35;;;;;;;6.50;2.80;;;;;;;-146.82;100.00;71671.09;5042866;28;20041;-82
2023/12/26 00:06:01;;;;;;;5.55;3.00;;;;;;;-146.82;100.00;71671.09;5043911;28;20041;-82
2023/12/26 00:08:26;;;;;;;4.93;2.75;;;;;;;-146.82;100.00;71671.09;5044817;28;20036;-82
2023/12/26 00:10:51;;;;;;;5.22;2.88;;;;;;;-146.82;100.00;71671.09;5047349;28;20026;-81
2023/12/26 00:13:17;;;;;;;7.47;2.75;;;;;;;-146.82;100.00;71671.09;5019487;28;20056;-81
2023/12/26 00:15:43;;;;;;;6.10;2.78;;;;;;;-146.82;100.00;71671.09;5035040;28;20037;-80
2023/12/26 00:18:08;;;;;;;4.68;2.60;;;;;;;-146.82;100.00;71671.09;5036330;28;20064;-81
2023/12/26 00:20:34;;;;;;;5.07;2.88;;;;;;;-146.82;100.00;71671.09;5036330;28;20029;-82
2023/12/26 00:23:00;;;;;;;4.78;2.72;;;;;;;-146.82;100.00;71671.09;5036440;28;20382;-81
2023/12/26 00:25:25;;;;;;;7.68;3.63;;;;;;;-146.82;100.00;71671.09;5035787;28;20056;-81
2023/12/26 00:27:51;;;;;;;5.45;3.30;;;;;;;-146.82;100.00;71671.09;5034647;28;20030;-82
2023/12/26 00:30:16;;;;;;;5.30;2.95;;;;;;;-146.82;100.00;71671.09;5036263;28;20026;-81
2023/12/26 00:32:41;;;;;;;6.93;2.95;;;;;;;-146.82;100.00;71671.09;5035911;28;20022;-81
2023/12/26 00:35:07;;;;;;;4.35;2.63;;;;;;;-146.82;100.00;71671.09;5035723;28;20025;-81
2023/12/26 00:37:33;;;;;;;4.28;2.53;;;;;;;-146.82;100.00;71671.09;5036355;28;20087;-81
2023/12/26 00:39:58;;;;;;;4.72;2.45;;;;;;;-146.82;100.00;71671.09;5034295;28;20123;-82
2023/12/26 00:42:24;;;;;;;3.63;2.28;;;;;;;-146.82;100.00;71671.09;5034267;28;20030;-81
2023/12/26 00:44:49;;;;;;;3.88;2.45;;;;;;;-146.82;100.00;71671.09;5034267;28;20049;-81
2023/12/26 00:47:15;;;;;;;4.35;2.63;;;;;;;-146.82;100.00;71671.09;5035464;28;20079;-80
2023/12/26 00:49:41;;;;;;;4.88;2.55;;;;;;;-146.82;100.00;71671.09;5035358;28;20411;-81
2023/12/26 00:52:07;;;;;;;7.53;2.30;;;;;;;-146.82;100.00;71671.09;5035384;28;20037;-83
2023/12/26 00:54:32;;;;;;;3.92;2.35;;;;;;;-146.82;100.00;71671.09;5034212;28;20025;-80
2023/12/26 00:56:58;;;;;;;4.70;2.05;;;;;;;-146.82;100.00;71671.09;5033834;28;20040;-81
2023/12/26 00:59:23;;;;;;;4.22;2.40;;;;;;;-146.82;100.00;71671.09;5033868;28;20044;-81
2023/12/26 01:01:49;;;;;;;4.15;2.28;;;;;;;-146.82;100.00;71671.09;5035289;28;20104;-80
2023/12/26 01:04:14;;;;;;;4.43;2.25;;;;;;;-146.82;100.00;71671.09;5035162;28;20037;-80
2023/12/26 01:06:39;;;;;;;3.60;1.80;;;;;;;-146.82;100.00;71671.09;5033647;28;20036;-80
2023/12/26 01:09:05;;;;;;;3.65;2.22;;;;;;;-146.82;100.00;71671.09;5034913;28;20034;-80
2023/12/26 01:11:30;;;;;;;3.38;1.90;;;;;;;-146.82;100.00;71671.09;5034887;28;20029;-81
2023/12/26 01:13:56;;;;;;;2.78;2.10;;;;;;;-146.82;100.00;71671.09;5034602;28;20121;-81
2023/12/26 01:16:27;;;;;;;3.00;1.73;;;;;;;-146.82;100.00;71671.09;5017064;28;20111;-81
2023/12/26 01:18:52;;;;;;;3.70;1.90;;;;;;;-146.82;100.00;71671.09;5033517;28;20112;-81
2023/12/26 01:21:18;;;;;;;4.47;1.85;;;;;;;-146.82;100.00;71671.09;5034232;28;20712;-80
2023/12/26 01:23:43;;;;;;;3.08;1.65;;;;;;;-146.82;100.00;71671.09;5034572;28;20357;-79
2023/12/26 01:26:09;;;;;;;4.63;1.98;;;;;;;-146.82;100.00;71671.09;5034472;28;20021;-80
2023/12/26 01:28:34;;;;;;;2.25;1.50;;;;;;;-146.82;100.00;71671.09;5016707;28;20048;-80
2023/12/26 01:31:00;;;;;;;3.63;2.00;;;;;;;-146.82;100.00;71671.09;5034518;28;20057;-81
2023/12/26 01:33:25;;;;;;;2.55;1.90;;;;;;;-146.82;100.00;71671.09;5034682;28;20104;-82
2023/12/26 01:35:51;;;;;;;2.70;2.10;;;;;;;-146.82;100.00;71671.09;5033232;28;20033;-82
2023/12/26 01:38:16;;;;;;;3.10;2.10;;;;;;;-146.82;100.00;71671.09;5034600;28;20029;-81
2023/12/26 01:40:42;;;;;;;3.65;2.00;;;;;;;-146.82;100.00;71671.09;5034437;28;20033;-80
2023/12/26 01:43:07;;;;;;;5.28;2.60;;;;;;;-146.82;100.00;71671.09;5034354;28;20026;-80
2023/12/26 01:45:33;;;;;;;3.55;2.80;;;;;;;-146.82;100.00;71671.09;5034701;28;20104;-81
2023/12/26 01:48:00;;;;;;;4.85;2.42;;;;;;;-146.82;100.00;71671.09;5034412;28;20034;-82
2023/12/26 01:50:25;;;;;;;6.40;3.05;;;;;;;-146.82;100.00;71671.09;5033035;28;20075;-79
2023/12/26 01:52:51;;;;;;;4.60;2.90;;;;;;;-146.82;100.00;71671.09;5034508;28;20130;-81
2023/12/26 01:55:17;;;;;;;4.38;2.70;;;;;;;-146.82;100.00;71671.09;5034381;28;20026;-80
2023/12/26 01:57:43;;;;;;;4.03;2.35;;;;;;;-146.82;100.00;71671.09;5032913;28;20021;-81
2023/12/26 02:00:09;;;;;;;3.92;2.30;;;;;;;-146.82;100.00;71671.09;5034172;28;20470;-80
2023/12/26 02:02:35;;;;;;;2.13;1.67;;;;;;;-146.82;100.00;71671.09;5034101;28;20041;-80
2023/12/26 02:05:01;;;;;;;3.88;1.70;;;;;;;-146.82;100.00;71671.09;5034408;28;20104;-80
2023/12/26 02:07:27;;;;;;;2.53;1.40;;;;;;;-146.82;100.00;71671.09;5033973;28;20112;-80
2023/12/26 02:09:52;;;;;;;2.53;1.40;;;;;;;-146.82;100.00;71671.09;5033968;28;20152;-82
2023/12/26 02:12:18;;;;;;;2.13;1.20;;;;;;;-146.82;100.00;71671.09;5033870;28;20033;-80
2023/12/26 02:14:44;;;;;;;1.02;1.00;;;;;;;-146.82;100.00;71671.09;5033846;28;20036;-82
2023/12/26 02:17:13;;;;;;;1.70;1.10;;;;;;;-146.82;100.00;71671.09;5034190;28;20117;-79
2023/12/26 02:19:42;;;;;;;1.58;1.48;;;;;;;-146.82;100.00;71671.09;5032932;28;20538;-81
2023/12/26 02:22:08;;;;;;;1.45;1.35;;;;;;;-146.82;100.00;71671.09;5034250;28;20439;-81
2023/12/26 02:24:34;;;;;;;1.38;1.23;;;;;;;-146.82;100.00;71671.09;5033414;28;20506;-80
2023/12/26 02:27:00;;;;;;;2.20;1.05;;;;;;;-146.82;100.00;71671.09;5032400;28;20033;-80
2023/12/26 02:29:27;;;;;;;1.70;1.38;;;;;;;-146.82;100.00;71671.09;5033841;28;20048;-82
2023/12/26 02:31:54;;;;;;;2.63;1.48;;;;;;;-146.82;100.00;71671.09;5033253;28;20032;-81
2023/12/26 02:34:19;;;;;;;1.40;1.30;;;;;;;-146.82;100.00;71671.09;5020866;28;20029;-81
2023/12/26 02:36:45;;;;;;;1.02;1.00;;;;;;;-146.82;100.00;71671.09;5021088;28;20040;-82
2023/12/26 02:39:10;;;;;;;1.20;1.02;;;;;;;-146.82;100.00;71671.09;5035513;28;20021;-80
2023/12/26 02:41:36;;;;;;;2.15;1.60;;;;;;;-146.82;100.00;71671.09;5037139;28;20060;-81
2023/12/26 02:44:01;;;;;;;1.58;1.45;;;;;;;-146.82;100.00;71671.09;5035823;28;20022;-80
2023/12/26 02:46:27;;;;;;;1.48;1.20;;;;;;;-146.82;100.00;71671.09;5016317;28;20021;-80
2023/12/26 02:48:52;;;;;;;1.60;1.50;;;;;;;-146.82;100.00;71671.09;5016447;28;20067;-81
2023/12/26 02:51:18;;;;;;;2.95;1.60;;;;;;;-146.82;100.00;71671.09;5032496;28;20471;-82
2023/12/26 02:53:44;;;;;;;1.42;1.33;;;;;;;-146.82;100.00;71671.09;5032714;28;20032;-81
2023/12/26 02:56:09;;;;;;;2.38;1.30;;;;;;;-146.82;100.00;71671.09;5016049;28;20122;-81
2023/12/26 02:58:36;;;;;;;1.60;1.50;;;;;;;-146.82;100.00;71671.09;5034852;28;20063;-80
2023/12/26 03:01:01;;;;;;;1.20;1.10;;;;;;;-146.82;100.00;71671.09;5040241;28;20093;-81
2023/12/26 03:03:27;;;;;;;1.40;1.30;;;;;;;-146.82;100.00;71671.09;5041980;28;20059;-81
2023/12/26 03:05:52;;;;;;;1.88;1.20;;;;;;;-146.82;100.00;71671.09;5041905;28;20025;-81
2023/12/26 03:08:17;;;;;;;1.27;1.17;;;;;;;-146.82;100.00;71671.09;5041667;28;20068;-80
2023/12/26 03:10:43;;;;;;;1.83;1.38;;;;;;;-146.82;100.00;71671.09;5041085;28;20025;-81
2023/12/26 03:13:08;;;;;;;2.05;1.30;;;;;;;-146.82;100.00;71671.09;5044319;28;20451;-81
2023/12/26 03:15:34;;;;;;;1.20;1.10;;;;;;;-146.82;100.00;71671.09;5041018;28;20124;-81
2023/12/26 03:17:59;;;;;;;2.50;1.10;;;;;;;-146.82;100.00;71671.09;5043191;28;20083;-82
2023/12/26 03:20:27;;;;;;;1.50;1.35;;;;;;;-146.82;100.00;71671.09;5037595;28;20106;-81
2023/12/26 03:22:52;;;;;;;1.77;1.27;;;;;;;-146.82;100.00;71671.09;5038352;28;20018;-81
2023/12/26 03:25:17;;;;;;;1.42;1.27;;;;;;;-146.82;100.00;71671.09;5036138;28;20056;-81
2023/12/26 03:27:43;;;;;;;1.85;1.30;;;;;;;-146.82;100.00;71671.09;5033775;28;20025;-81
2023/12/26 03:30:09;;;;;;;0.88;0.88;;;;;;;-146.82;100.00;71671.09;5036366;28;20052;-80
2023/12/26 03:32:34;;;;;;;1.52;1.20;;;;;;;-146.82;100.00;71671.09;5045696;28;20421;-81
2023/12/26 03:35:01;;;;;;;1.23;0.85;;;;;;;-146.82;100.00;71671.09;5045303;28;20029;-80
2023/12/26 03:37:27;;;;;;;1.60;0.90;;;;;;;-146.82;100.00;71671.09;5049353;28;20027;-80
2023/12/26 03:39:52;;;;;;;1.48;0.90;;;;;;;-146.82;100.00;71671.09;5050922;28;20037;-81
2023/12/26 03:42:18;;;;;;;0.85;0.80;;;;;;;-146.82;100.00;71671.09;5051003;28;20028;-82
2023/12/26 03:44:46;;;;;;;1.65;1.00;;;;;;;-146.82;100.00;71671.09;5049685;28;20041;-80
2023/12/26 03:47:12;;;;;;;0.98;0.80;;;;;;;-146.82;100.00;71671.09;5047982;28;20025;-81
2023/12/26 03:49:38;;;;;;;1.17;0.85;;;;;;;-146.82;100.00;71671.09;5024304;28;20458;-81
2023/12/26 03:52:04;;;;;;;1.10;0.82;;;;;;;-146.82;100.00;71671.09;5037619;28;20032;-79
2023/12/26 03:54:29;;;;;;;0.80;0.80;;;;;;;-146.82;100.00;71671.09;5038096;28;20033;-80
2023/12/26 03:56:55;;;;;;;0.73;0.73;;;;;;;-146.82;100.00;71671.09;5037856;28;20083;-82
2023/12/26 03:59:20;;;;;;;1.33;0.70;;;;;;;-146.82;100.00;71671.09;5037588;28;20057;-80
2023/12/26 04:01:46;;;;;;;0.98;0.52;;;;;;;-146.82;100.00;71671.09;5037225;28;20462;-81
2023/12/26 04:04:12;;;;;;;0.70;0.60;;;;;;;-146.82;100.00;71671.09;5036673;28;20056;-80
2023/12/26 04:06:37;;;;;;;2.33;0.65;;;;;;;-146.82;100.00;71671.09;5037001;28;20459;-81
2023/12/26 04:09:03;;;;;;;0.52;0.45;;;;;;;-146.82;100.00;71671.09;5037936;28;20033;-79
2023/12/26 04:11:30;;;;;;;0.65;0.65;;;;;;;-146.82;100.00;71671.09;5038221;28;20048;-81
2023/12/26 04:13:55;;;;;;;1.00;0.70;;;;;;;-146.82;100.00;71671.09;5040951;28;20033;-83
2023/12/26 04:16:21;;;;;;;0.90;0.80;;;;;;;-146.82;100.00;71671.09;5048669;28;20033;-81
2023/12/26 04:18:46;;;;;;;0.75;0.57;;;;;;;-146.82;100.00;71671.09;5019795;28;20052;-79
2023/12/26 04:21:12;;;;;;;0.68;0.60;;;;;;;-146.82;100.00;71671.09;5036129;28;20120;-80
2023/12/26 04:23:37;;;;;;;0.75;0.52;;;;;;;-146.82;100.00;71671.09;5035998;28;20052;-80
2023/12/26 04:26:03;;;;;;;0.55;0.40;;;;;;;-146.82;100.00;71671.09;5036515;28;20033;-80
2023/12/26 04:28:28;;;;;;;0.55;0.55;;;;;;;-146.82;100.00;71671.09;5018165;28;20403;-80
2023/12/26 04:30:54;;;;;;;0.82;0.50;;;;;;;-146.82;100.00;71671.09;5036002;28;20033;-82
2023/12/26 04:33:19;;;;;;;0.60;0.40;;;;;;;-146.82;100.00;71671.09;5036017;28;20070;-80
2023/12/26 04:35:45;;;;;;;0.85;0.40;;;;;;;-146.82;100.00;71671.09;5036030;28;20029;-80
2023/12/26 04:38:12;;;;;;;0.47;0.40;;;;;;;-146.82;100.00;71671.09;5036499;28;20025;-81
2023/12/26 04:40:38;;;;;;;0.60;0.47;;;;;;;-146.82;100.00;71671.09;5036250;28;20037;-81
2023/12/26 04:43:07;;;;;;;0.35;0.30;;;;;;;-146.82;100.00;71671.09;5017993;28;20030;-82
2023/12/26 04:45:33;;;;;;;0.47;0.47;;;;;;;-146.82;100.00;71671.09;5034559;28;20032;-80
2023/12/26 04:47:58;;;;;;;0.98;0.70;;;;;;;-146.82;100.00;71671.09;5034811;28;20386;-81
2023/12/26 04:50:24;;;;;;;0.50;0.45;;;;;;;-146.82;100.00;71671.09;5017920;28;20021;-81
2023/12/26 04:52:49;;;;;;;0.85;0.60;;;;;;;-146.82;100.00;71671.09;5035472;28;20462;-81
2023/12/26 04:55:14;;;;;;;0.20;0.20;;;;;;;-146.82;100.00;71671.09;5034639;28;20029;-80
2023/12/26 04:57:40;;;;;;;0.50;0.50;;;;;;;-146.82;100.00;71671.09;5035271;28;20025;-82
2023/12/26 05:00:06;;;;;;;0.50;0.38;;;;;;;-146.82;100.00;71671.09;5035434;28;20021;-81
2023/12/26 05:02:31;;;;;;;0.40;0.38;;;;;;;-146.82;100.00;71671.09;5035126;28;20033;-81
2023/12/26 05:04:57;;;;;;;0.55;0.50;;;;;;;-146.82;100.00;71671.09;5033746;28;20108;-80
2023/12/26 05:07:22;;;;;;;0.77;0.45;;;;;;;-146.82;100.00;71671.09;5034965;28;20121;-81
2023/12/26 05:09:48;;;;;;;0.45;0.32;;;;;;;-146.82;100.00;71671.09;5035108;28;20075;-82
2023/12/26 05:12:13;;;;;;;0.30;0.30;;;;;;;-146.82;100.00;71671.09;5035216;28;20030;-81
2023/12/26 05:14:39;;;;;;;0.43;0.40;;;;;;;-146.82;100.00;71671.09;5035325;28;20518;-80
2023/12/26 05:17:04;;;;;;;0.35;0.22;;;;;;;-146.82;100.00;71671.09;5034994;28;20033;-81
2023/12/26 05:19:30;;;;;;;0.50;0.28;;;;;;;-146.82;100.00;71671.09;5034813;28;20033;-81
2023/12/26 05:21:55;;;;;;;0.20;0.20;;;;;;;-146.82;100.00;71671.09;5035446;28;20033;-80
2023/12/26 05:24:21;;;;;;;0.20;0.20;;;;;;;-146.82;100.00;71671.09;5035290;28;20208;-80
2023/12/26 05:26:46;;;;;;;0.20;0.20;;;;;;;-146.82;100.00;71671.09;5035369;28;20040;-81
2023/12/26 05:29:12;;;;;;;0.73;0.30;;;;;;;-146.82;100.00;71671.09;5033979;28;20056;-80
2023/12/26 05:31:40;;;;;;;0.30;0.20;;;;;;;-146.82;100.00;71671.09;5017432;28;20033;-80
2023/12/26 05:34:07;;;;;;;0.40;0.40;;;;;;;-146.82;100.00;71671.09;5033564;28;20041;-81
2023/12/26 05:36:33;;;;;;;0.43;0.20;;;;;;;-146.82;100.00;71671.09;5033598;28;20032;-81
2023/12/26 05:38:59;;;;;;;0.30;0.30;;;;;;;-146.82;100.00;71671.09;5017334;28;20025;-81
2023/12/26 05:41:27;;;;;;;0.35;0.32;;;;;;;-146.82;100.00;71671.09;5016692;28;20471;-80
2023/12/26 05:43:52;;;;;;;0.30;0.20;;;;;;;-146.82;100.00;71671.09;5034445;28;20056;-80
2023/12/26 05:46:20;;;;;;;1.30;0.40;;;;;;;-146.82;100.00;71671.09;5034253;28;20466;-81
2023/12/26 05:48:45;;;;;;;0.30;0.30;;;;;;;-146.82;100.00;71671.09;5034331;28;20111;-79
2023/12/26 05:51:11;;;;;;;0.65;0.30;;;;;;;-146.82;100.00;71671.09;5034338;28;20029;-81
2023/12/26 05:53:36;;;;;;;1.05;0.30;;;;;;;-146.82;100.00;71671.09;5034665;28;20053;-81
2023/12/26 05:56:02;;;;;;;0.47;0.22;;;;;;;-146.82;100.00;71671.09;5034618;28;20067;-80
2023/12/26 05:58:28;;;;;;;0.40;0.32;;;;;;;-146.82;100.00;71671.09;5033848;28;20026;-80
2023/12/26 06:00:53;;;;;;;0.30;0.30;;;;;;;-146.82;100.00;71671.09;5035917;28;20052;-80
2023/12/26 06:03:19;;;;;;;0.32;0.25;;;;;;;-146.82;100.00;71671.09;5033812;28;20025;-80
2023/12/26 06:05:45;;;;;;;0.30;0.30;;;;;;;-146.82;100.00;71671.09;5017067;28;20076;-80
2023/12/26 06:08:11;;;;;;;0.30;0.30;;;;;;;-146.82;100.00;71671.09;5033928;28;20478;-81
2023/12/26 06:10:36;;;;;;;0.28;0.28;;;;;;;-146.82;100.00;71671.09;5034178;28;20029;-81
2023/12/26 06:13:02;;;;;;;0.40;0.40;;;;;;;-146.82;100.00;71671.09;5016550;28;20040;-80
2023/12/26 06:15:28;;;;;;;0.47;0.47;;;;;;;-146.82;100.00;71671.09;5033883;28;20025;-80
2023/12/26 06:17:53;;;;;;;0.40;0.30;;;;;;;-146.82;100.00;71671.09;5032379;28;20033;-81
2023/12/26 06:20:22;;;;;;;0.30;0.30;;;;;;;-146.82;100.00;71671.09;5015994;28;20036;-80
2023/12/26 06:22:48;;;;;;;1.33;0.50;;;;;;;-146.82;100.00;71671.09;5033816;28;20034;-80
2023/12/26 06:25:13;;;;;;;0.38;0.32;;;;;;;-146.82;100.00;71671.09;5015672;28;20056;-81
2023/12/26 06:27:39;;;;;;;0.52;0.40;;;;;;;-146.82;100.00;71671.09;5032448;28;20060;-82
2023/12/26 06:30:07;;;;;;;0.63;0.52;;;;;;;-146.82;100.00;71671.09;5032470;28;20071;-81
2023/12/26 06:32:32;;;;;;;0.47;0.47;;;;;;;-146.82;100.00;71671.09;5033553;28;20429;-81
2023/12/26 06:34:58;;;;;;;0.40;0.32;;;;;;;-146.82;100.00;71671.09;5033849;28;20029;-82
2023/12/26 06:37:23;;;;;;;0.45;0.43;;;;;;;-146.82;100.00;71671.09;5033785;28;20026;-81
2023/12/26 06:39:49;;;;;;;0.43;0.43;;;;;;;-146.82;100.00;71671.09;5033484;28;20025;-81
2023/12/26 06:42:14;;;;;;;0.60;0.57;;;;;;;-146.82;100.00;71671.09;5033562;28;20025;-82
2023/12/26 06:44:40;;;;;;;0.45;0.45;;;;;;;-146.82;100.00;71671.09;5015703;28;20029;-81
2023/12/26 06:47:06;;;;;;;0.60;0.52;;;;;;;-146.82;100.00;71671.09;5033218;28;20034;-82
2023/12/26 06:49:31;;;;;;;1.17;0.52;;;;;;;-146.82;100.00;71671.09;5033556;28;20052;-81
2023/12/26 06:51:59;;;;;;;0.85;0.50;;;;;;;-146.82;100.00;71671.09;5033539;28;20090;-81
2023/12/26 06:54:24;;;;;;;1.35;1.23;;;;;;;-146.82;100.00;71671.09;5033408;28;20033;-80
2023/12/26 06:56:50;;;;;;;0.50;0.50;;;;;;;-146.82;100.00;71671.09;5033316;28;20450;-80
2023/12/26 06:59:15;;;;;;;1.20;0.40;;;;;;;-146.82;100.00;71671.09;5033979;28;20386;-79
2023/12/26 07:01:46;;;;;;;0.50;0.50;;;;;;;-146.82;100.00;71671.09;5033691;28;20355;-79
2023/12/26 07:04:11;;;;;;;1.20;0.70;;;;;;;-146.82;100.00;71671.09;5033636;28;20053;-81
2023/12/26 07:06:37;;;;;;;0.55;0.50;;;;;;;-146.82;100.00;71671.09;5032070;28;20453;-81
2023/12/26 07:09:02;;;;;;;0.63;0.50;;;;;;;-146.82;100.00;71671.09;5033321;28;20025;-80
2023/12/26 07:11:28;;;;;;;0.57;0.50;;;;;;;-146.82;100.00;71671.09;5035504;28;20059;-81
2023/12/26 07:13:54;;;;;;;0.50;0.50;;;;;;;-146.82;100.00;71671.09;5038551;28;20057;-81
2023/12/26 07:16:19;;;;;;;1.20;0.68;;;;;;;-146.82;100.00;71671.09;5053524;28;20013;-81
2023/12/26 07:18:46;;;;;;;1.70;0.57;;;;;;;-146.82;100.00;71671.09;5050361;28;20059;-81
2023/12/26 07:21:13;;;;;;;0.60;0.50;;;;;;;-146.82;100.00;71671.09;5022319;28;20030;-81
2023/12/26 07:23:38;;;;;;;0.75;0.52;;;;;;;-146.82;100.00;71671.09;5039950;28;20053;-81
2023/12/26 07:26:04;;;;;;;2.42;0.73;;;;;;;-146.82;100.00;71671.09;5020501;28;20033;-82
2023/12/26 07:28:30;;;;;;;0.60;0.60;;;;;;;-146.82;100.00;71671.09;5036902;28;20455;-80
2023/12/26 07:30:55;;;;;;;0.60;0.60;;;;;;;-146.82;100.00;71671.09;5035669;28;20091;-81
2023/12/26 07:33:21;;;;;;;0.50;0.50;;;;;;;-146.82;100.00;71671.09;5037210;28;20029;-83
2023/12/26 07:35:46;;;;;;;1.42;0.82;;;;;;;-146.82;100.00;71671.09;5037202;28;20120;-80
2023/12/26 07:38:12;;;;;;;1.10;0.63;;;;;;;-146.82;100.00;71671.09;5035391;28;20489;-81
2023/12/26 07:40:39;;;;;;;1.25;0.85;;;;;;;-146.82;100.00;71671.09;5036855;28;20025;-81
2023/12/26 07:43:05;;;;;;;0.85;0.80;;;;;;;-146.82;100.00;71671.09;5035926;28;20064;-82
2023/12/26 07:45:30;;;;;;;1.85;0.80;;;;;;;-146.82;100.00;71671.09;5037548;28;20555;-82
2023/12/26 07:47:56;;;;;;;1.95;0.82;;;;;;;-146.82;100.00;71671.09;5039960;28;20040;-82
2023/12/26 07:50:22;;;;;;;1.60;0.80;;;;;;;-146.82;100.00;71671.09;5040500;28;20344;-81
2023/12/26 07:52:47;;;;;;;1.02;0.95;;;;;;;-146.82;100.00;71671.09;5039201;28;20021;-81
2023/12/26 07:55:13;;;;;;;1.85;0.80;;;;;;;-146.82;100.00;71671.09;5036993;28;20132;-79
2023/12/26 07:57:39;;;;;;;1.20;1.00;;;;;;;-146.82;100.00;71671.09;5036778;28;20510;-80
2023/12/26 08:00:05;;;;;;;1.15;1.05;;;;;;;-146.82;100.00;71671.09;5036431;28;20104;-81
2023/12/26 08:02:30;;;;;;;1.52;0.82;;;;;;;-146.82;100.00;71671.09;5035118;28;20034;-80
2023/12/26 08:04:56;;;;;;;1.13;0.80;;;;;;;-146.82;100.00;71671.09;5035092;28;20044;-80
2023/12/26 08:07:21;;;;;;;0.80;0.75;;;;;;;-146.82;100.00;71671.09;5036268;28;20033;-81
2023/12/26 08:09:47;;;;;;;0.85;0.85;;;;;;;-146.82;100.00;71671.09;5036391;28;20056;-81
2023/12/26 08:12:12;;;;;;;0.77;0.77;;;;;;;-146.82;100.00;71671.09;5035034;28;20040;-81
2023/12/26 08:14:38;;;;;;;0.80;0.80;;;;;;;-146.82;100.00;71671.09;5034765;28;20085;-81
2023/12/26 08:17:03;;;;;;;0.70;0.70;;;;;;;-146.82;100.00;71671.09;5036095;28;20585;-81
2023/12/26 08:19:29;;;;;;;1.35;0.93;;;;;;;-146.82;100.00;71671.09;5035190;28;20024;-81
2023/12/26 08:21:55;;;;;;;1.13;0.82;;;;;;;-146.82;100.00;71671.09;5036094;28;20029;-80
2023/12/26 08:24:21;;;;;;;0.80;0.80;;;;;;;-146.82;100.00;71671.09;5035856;28;20045;-80
2023/12/26 08:26:52;;;;;;;1.05;0.85;;;;;;;-146.82;100.00;71671.09;5036092;28;20044;-81
2023/12/26 08:29:17;;;;;;;1.20;0.90;;;;;;;-146.82;100.00;71671.09;5035485;28;20116;-83
2023/12/26 08:31:43;;;;;;;0.95;0.70;;;;;;;-146.82;100.00;71671.09;5035372;28;20106;-82
2023/12/26 08:34:09;;;;;;;1.15;0.80;;;;;;;-146.82;100.00;71671.09;5035993;28;20388;-83
2023/12/26 08:36:34;;;;;;;1.02;0.70;;;;;;;-146.82;100.00;71671.09;5036027;28;20032;-82
2023/12/26 08:39:00;;;;;;;1.10;0.98;;;;;;;-146.82;100.00;71671.09;5035966;28;20029;-80
2023/12/26 08:41:25;;;;;;;1.00;0.90;;;;;;;-146.82;100.00;71671.09;5035670;28;20025;-82
2023/12/26 08:43:51;;;;;;;0.95;0.80;;;;;;;-146.82;100.00;71671.09;5034398;28;20032;-81
2023/12/26 08:46:16;;;;;;;0.52;0.50;;;;;;;-146.82;100.00;71671.09;5034574;28;20441;-81
2023/12/26 08:48:42;;;;;;;1.23;0.98;;;;;;;-146.82;100.00;71671.09;5034879;28;20103;-80
2023/12/26 08:51:07;;;;;;;0.82;0.80;;;;;;;-146.82;100.00;71671.09;5035451;28;20443;-81
2023/12/26 08:53:33;;;;;;;0.80;0.63;;;;;;;-146.82;100.00;71671.09;5034040;28;20060;-80
2023/12/26 08:56:01;;;;;;;0.90;0.80;;;;;;;-146.82;100.00;71671.09;5035243;28;20531;-79
2023/12/26 08:58:31;;;;;;;0.95;0.93;;;;;;;-146.82;100.00;71671.09;5035055;28;20113;-82
2023/12/26 09:00:57;;;;;;;1.02;0.73;;;;;;;-146.82;100.00;71671.09;5035399;28;20043;-81
2023/12/26 09:03:22;;;;;;;2.90;1.10;;;;;;;-146.82;100.00;71671.09;5035050;28;20542;-82
2023/12/26 09:05:48;;;;;;;0.98;0.88;;;;;;;-146.82;100.00;71671.09;5034955;28;20032;-81
2023/12/26 09:08:13;;;;;;;1.25;1.05;;;;;;;-146.82;100.00;71671.09;5017341;28;20468;-81
2023/12/26 09:10:39;;;;;;;1.08;0.88;;;;;;;-146.82;100.00;71671.09;5033742;28;20068;-81
2023/12/26 09:13:04;;;;;;;1.10;0.98;;;;;;;-146.82;100.00;71671.09;5033527;28;20048;-80
2023/12/26 09:15:30;;;;;;;1.50;1.05;;;;;;;-146.82;100.00;71671.09;5033648;28;20111;-81
2023/12/26 09:17:55;;;;;;;1.15;0.90;;;;;;;-146.82;100.00;71671.09;5033827;28;20022;-81
2023/12/26 09:20:21;;;;;;;1.63;1.10;;;;;;;-146.82;100.00;71671.09;5035563;28;20351;-81
2023/12/26 09:22:46;;;;;;;4.10;1.20;;;;;;;-146.82;100.00;71671.09;5035567;28;20025;-81
2023/12/26 09:25:13;;;;;;;2.35;1.10;;;;;;;-146.82;100.00;71671.09;5017949;28;20052;-81
2023/12/26 09:27:38;;;;;;;2.78;0.90;;;;;;;-146.82;100.00;71671.09;5035288;28;20108;-81
2023/12/26 09:30:04;;;;;;;2.28;1.42;;;;;;;-146.82;100.00;71671.09;5033740;28;20143;-82
2023/12/26 09:32:30;;;;;;;1.67;1.13;;;;;;;-146.82;100.00;71671.09;5016987;28;20053;-79
2023/12/26 09:34:55;;;;;;;1.83;0.98;;;;;;;-146.82;100.00;71671.09;5034867;28;20022;-81
2023/12/26 09:37:21;;;;;;;1.02;0.90;;;;;;;-146.82;100.00;71671.09;5034617;28;20030;-80
2023/12/26 09:39:46;;;;;;;1.58;0.95;;;;;;;-146.82;100.00;71671.09;5034403;28;20474;-80
2023/12/26 09:42:13;;;;;;;1.00;0.70;;;;;;;-146.82;100.00;71671.09;5034054;28;20064;-81
2023/12/26 09:44:39;;;;;;;1.95;1.30;;;;;;;-146.82;100.00;71671.09;5034570;28;20033;-80
2023/12/26 09:47:05;;;;;;;1.02;0.65;;;;;;;-146.82;100.00;71671.09;5034674;28;20389;-81
2023/12/26 09:49:31;;;;;;;1.52;0.88;;;;;;;-146.82;100.00;71671.09;5017078;28;20021;-81
2023/12/26 09:52:01;;;;;;;1.10;0.60;;;;;;;-146.82;100.00;71671.09;5034507;28;20033;-81
2023/12/26 09:54:27;;;;;;;1.02;0.70;;;;;;;-146.82;100.00;71671.09;5034536;28;20064;-81
2023/12/26 09:56:52;;;;;;;1.63;0.80;;;;;;;-146.82;100.00;71671.09;5033083;28;20060;-81
2023/12/26 09:59:19;;;;;;;1.23;0.68;;;;;;;-146.82;100.00;71671.09;5034279;28;20033;-81
2023/12/26 10:01:45;;;;;;;1.38;0.90;;;;;;;-146.82;100.00;71671.09;5034223;28;20501;-81
2023/12/26 10:04:10;;;;;;;0.70;0.60;;;;;;;-146.82;100.00;71671.09;5032748;28;20056;-80
2023/12/26 10:06:36;;;;;;;0.70;0.70;;;;;;;-146.82;100.00;71671.09;5034163;28;20032;-81
2023/12/26 10:09:01;;;;;;;1.45;0.80;;;;;;;-146.82;100.00;71671.09;5032512;28;20021;-81
2023/12/26 10:11:28;;;;;;;1.13;0.82;;;;;;;-146.82;100.00;71671.09;5033909;28;20454;-80
2023/12/26 10:13:54;;;;;;;4.47;2.30;;;;;;;-146.82;100.00;71671.09;5033899;28;20485;-81
2023/12/26 10:16:20;;;;;;;1.05;0.88;;;;;;;-146.82;100.00;71671.09;5032708;28;20052;-80
2023/12/26 10:18:46;;;;;;;0.85;0.70;;;;;;;-146.82;100.00;71671.09;5033824;28;20049;-81
2023/12/26 10:21:14;;;;;;;1.30;0.80;;;;;;;-146.82;100.00;71671.09;5033789;28;20413;-81
2023/12/26 10:23:39;;;;;;;1.63;0.95;;;;;;;-146.82;100.00;71671.09;5033457;28;20398;-81
2023/12/26 10:26:05;;;;;;;1.25;0.80;;;;;;;-146.82;100.00;71671.09;5033557;28;20025;-80
2023/12/26 10:28:38;;;;;;;1.23;0.73;;;;;;;-146.82;100.00;71671.09;5032100;28;20025;-83
2023/12/26 10:31:12;;;;;;;1.55;0.80;;;;;;;-146.82;100.00;71671.09;5033707;28;20021;-82
2023/12/26 10:33:38;;;;;;;1.92;0.77;;;;;;;-146.82;100.00;71671.09;5032358;28;20105;-82
2023/12/26 10:36:07;;;;;;;1.02;0.85;;;;;;;-146.82;100.00;71671.09;5032349;28;20048;-81
2023/12/26 10:38:33;;;;;;;1.30;0.85;;;;;;;-146.82;100.00;71671.09;5033386;28;20101;-80
2023/12/26 10:41:02;;;;;;;6.40;1.13;;;;;;;-146.82;100.00;71671.09;5033415;28;20025;-81
2023/12/26 10:43:29;;;;;;;1.20;0.82;;;;;;;-146.82;100.00;71671.09;5032305;28;20036;-80
2023/12/26 10:45:58;;;;;;;0.57;0.55;;;;;;;-146.82;100.00;71671.09;5015912;28;20112;-81
2023/12/26 10:48:32;;;;;;;2.53;0.95;;;;;;;-146.82;100.00;71671.09;5032185;28;20026;-81
2023/12/26 10:51:01;;;;;;;1.67;0.70;;;;;;;-146.82;100.00;71671.09;5033449;28;20059;-81
2023/12/26 10:53:33;;;;;;;2.00;0.85;;;;;;;-146.82;100.00;71671.09;5032932;28;20446;-81
2023/12/26 10:56:00;;;;;;;0.98;0.80;;;;;;;-146.82;100.00;71671.09;5033599;28;20485;-80
2023/12/26 10:58:31;;;;;;;1.73;0.98;;;;;;;-146.82;100.00;71671.09;5033447;28;20065;-82
2023/12/26 11:00:57;;;;;;;0.70;0.57;;;;;;;-146.82;100.00;71671.09;5033169;28;20039;-80
2023/12/26 13:51:49;;;;;;;3.20;1.17;;;;;;;-146.82;100.00;71671.09;5034968;28;20525;-81